Terminal Aerodrome Forecast
Issued by NWS Sioux Falls, SD

Home | Current Version | Previous Version | Text Only | Print | Product List | Glossary On
Versions: 1 2 3 4 5 6 7 8 9 10 11 12 13 14 15
000
FTUS43 KFSD 091121
TAFHON
TAF
KHON 091121Z 0912/1012 VRB03KT P6SM OVC150
     FM091500 03003KT P6SM BKN080
     FM091800 13005KT P6SM OVC050
     FM092100 04005KT P6SM -SN BKN025
     FM100300 03006KT P6SM OVC025=

USA.gov is the U.S. government's official web portal to all federal, state and local government web resources and services.